Tiempo atmosférico en la estación meteorológica de Logroño Aeropuerto, La Rioja (353 m.)



Fecha
DESCASC
Temp. máxima en grados centígrados (hora)
DESCASC
Temp. mínima en grados centígrados (hora)
DESCASC
Temp. media en grados centígrados
DESCASC
Racha de viento máxima en m/sg (hora)
DESCASC
Velocidad máxima media en intervalos de 10 minutos(hora)
DESCASC
Precipitaciones diarias en mm
DESCASC
Precipitaciones de 00:00 a 06:00 en mm
DESCASC
Precipitaciones de 06:00 a 12:00 en mm
DESCASC
Precipitaciones de 12:00 a 18:00 en mm
DESCASC
Precipitaciones de 18:00 a 24:00 en mm
DESCASC
24-09-2020 24.5 (17:10) 13 (08:20) 18.8 13.33 (16:20) 8.06 (17:20) 0 0 0 0 0
23-09-2020 26.2 (17:20) 11.8 (00:00) 19 5.83 (15:40) 3.33 (17:30) 0 0 0 0 0
22-09-2020 25.9 (17:20) 12.1 (00:00) 19 6.11 (15:50) 3.33 (16:50) 0 0 0 0 0
21-09-2020 24.9 (17:00) 14.6 (00:00) 19.8 6.11 (17:00) 3.89 (15:40) 0 0 0 0 0
20-09-2020 25.1 (15:10) 11.7 (00:00) 18.4 5.83 (15:50) 3.89 (17:50) 0.1 0 0 0.1 0
19-09-2020 24.2 (14:20) 15 (00:00) 19.6 10.28 (14:30) 6.67 (13:30) 4.1 3.1 0.1 0.3 0.6
18-09-2020 26.1 (17:10) 18 (00:00) 22.1 14.44 (16:20) 10.28 (16:30) 1.7 1.5 0 0 0.2
17-09-2020 30.8 (16:10) 18.4 (00:00) 24.6 13.33 (20:40) 8.89 (20:40) -- 0.1 0.2 -- 0
16-09-2020 32.6 (17:40) 15.2 (00:00) 23.9 6.11 (14:10) 3.89 (16:30) 0 0 0 0 0
15-09-2020 31.8 (17:10) 18.2 (00:00) 25 8.33 (15:50) 5 (13:00) 1.5 1.3 0.2 0 0
14-09-2020 31.4 (15:50) 15.2 (00:00) 23.3 12.5 (12:50) 9.44 (13:50) 0 0 0 0 0
13-09-2020 33.4 (17:40) 12.5 (00:00) 23 11.39 (18:20) 8.06 (17:10) 0 0 0 0 0
12-09-2020 31.9 (17:40) 13.6 (00:00) 22.8 5 (11:10) 3.61 (11:10) 0 0 0 0 0
11-09-2020 30.8 (17:30) 15.3 (00:00) 23 7.22 (18:10) 3.89 (11:40) 0 0 0 0 0
10-09-2020 30.6 (15:20) 15.4 (00:00) 23 7.22 (09:00) 5 (08:50) 0 0 0 0 0
09-09-2020 30.8 (16:20) 10.8 (00:00) 20.8 8.89 (19:40) 6.39 (19:40) 0 0 0 0 0
08-09-2020 27.9 (17:30) 10.9 (00:00) 19.4 8.33 (17:50) 5.83 (18:50) 0 0 0 0 0
07-09-2020 23.3 (16:10) 13.8 (06:00) 18.5 8.33 (12:50) 4.72 (15:00) 0 0 0 0 0
06-09-2020 22.9 (17:00) 16.7 (00:00) 19.8 9.17 (19:20) 4.72 (18:30) 0 0 0 0 0
05-09-2020 27.3 (16:50) 14.1 (00:00) 20.7 7.78 (16:30) 4.17 (18:40) 0 0 0 0 0
04-09-2020 32.6 (17:40) 9.9 (00:00) 21.2 9.17 (14:20) 7.22 (16:50) 0 0 0 0 0
03-09-2020 31 (18:10) 9.2 (00:00) 20.1 5 (17:20) 3.33 (17:50) 0 0 0 0 0
02-09-2020 26.9 (17:00) 12.4 (00:00) 19.6 6.67 (11:30) 4.17 (11:30) 0 0 0 0 0
01-09-2020 27.5 (15:40) 12.7 (00:00) 20.1 8.33 (18:50) 3.61 (10:50) 0 0 0 0 0
31-08-2020 26 (17:50) 9.1 (00:00) 17.6 8.33 (16:30) 3.61 (16:30) 0 0 0 0 0
30-08-2020 20.2 (16:10) 12.2 (00:00) 16.2 9.17 (10:30) 5.28 (01:40) 0 0 0 0 0
29-08-2020 21.7 (14:10) 13.3 (00:00) 17.5 11.39 (15:00) 7.22 (14:50) 0.6 0 0 0.1 0.5
28-08-2020 22.3 (00:00) 16.8 (00:00) 19.5 8.89 (17:10) 4.72 (17:10) 0 0 0 0 0
27-08-2020 34.6 (16:30) 18.4 (00:00) 26.5 7.78 (18:40) 5.28 (20:00) 0 0 0 0 0
26-08-2020 34.4 (17:50) 17.2 (00:00) 25.8 5.83 (18:40) 3.89 (21:40) 0 0 0 0 0

Gráficas

Temp. máximas Temp. mínimas Temp. medias Precipitaciones Rachas de viento máximas Velocidades máximas media en intervalos de 10 minutos

Datos horarios

Fecha y hora oficial Temperatura (ºC) Velocidad del viento (km/h) Dirección del viento Racha (km/h) Dirección de racha Precipitación (mm) Presión (hPa) Tendencia (hPa) Humedad (%)
2020-09-24 23:00:00 18.4 11 Oeste 26 Oeste 0 971 1.9 45
2020-09-24 22:00:00 19.1 9 Oeste 30 Oeste 0 970.5 2 44
2020-09-24 21:00:00 20.1 13 Oeste 32 Oeste 0 969.5 -- 41
2020-09-24 20:00:00 21.5 22 Oeste 48 Oeste 0 969.1 -- 34
2020-09-24 19:00:00 22.7 24 Oeste 46 Oeste 0 968.5 -- 32
2020-09-24 18:00:00 23.6 24 Oeste 48 Sudoeste 0 968.1 -- 29
2020-09-24 17:00:00 24.3 22 Oeste 48 Oeste 0 968.3 -- 30
2020-09-24 16:00:00 23.7 25 Oeste 41 Oeste 0 968.6 -- 31
2020-09-24 15:00:00 22.8 16 Oeste 30 Oeste 0 969.4 -- 41
2020-09-24 14:00:00 21.8 12 Oeste 28 Oeste 0 970.2 -- 46
2020-09-24 13:00:00 21 14 Oeste 30 Oeste 0 970.6 -- 47
2020-09-24 12:00:00 20.2 15 Oeste 32 Oeste 0 970.7 -- 48
2020-09-24 11:00:00 19.4 16 Oeste 26 Oeste 0 970.7 -- 58
2020-09-24 10:00:00 16.5 0 Calma 5 Oeste 0 970.6 -- 83
2020-09-24 09:00:00 13.3 0 Calma 4 Oeste 0 970.6 -- 94
2020-09-24 08:00:00 13.8 3 Noroeste 5 Oeste 0 970.3 -- 96
2020-09-24 07:00:00 14.1 3 Norte 5 Norte 0 970.3 -- 93
2020-09-24 06:00:00 14.8 2 Sur 8 Noroeste 0 970.6 -- 94
2020-09-24 05:00:00 15 2 Oeste 8 Norte 0 970.7 -- 91
2020-09-24 04:00:00 15.8 0 Calma 4 Oeste 0 970.6 -- 90
2020-09-24 03:00:00 16.5 4 Este 8 Este 0 970.6 -- 83
2020-09-24 02:00:00 18 4 Oeste 11 Oeste 0 970.5 -- 79
2020-09-24 01:00:00 18.2 4 Este 8 Nordeste 0 970.6 -- 78
2020-09-24 00:00:00 18.6 0 Calma 5 Norte 0 970.4 -- 80
2020-09-23 23:00:00 19.1 3 Oeste 9 Oeste 0 970.2 -- 78
2020-09-23 22:00:00 20.2 3 Sudoeste 11 Noroeste 0 969.8 -- 69
2020-09-23 21:00:00 19.7 6 Oeste 8 Sudoeste 0 969.1 -- 74
2020-09-23 20:00:00 22.1 7 Oeste 11 Oeste 0 968.4 -- 59
2020-09-23 19:00:00 24.5 7 Sudeste 15 Sur 0 968.2 -- 46
2020-09-23 18:00:00 25.6 10 Sudoeste 18 Sudeste 0 968.2 -- 42
2020-09-23 17:00:00 25.5 5 Sudoeste 13 Oeste 0 968.6 -- 44
2020-09-23 16:00:00 23.6 8 Noroeste 21 Oeste 0 969 -- 53
2020-09-23 15:00:00 23.5 7 Oeste 13 Sur 0 969.4 -- 49
2020-09-23 14:00:00 23.2 6 Oeste 9 Sudoeste 0 969.8 -- 49
2020-09-23 13:00:00 23.2 4 Sudoeste 15 Este 0 970.1 -- 50
2020-09-23 12:00:00 21.7 8 Nordeste 17 Nordeste 0 970.1 -- 55
2020-09-23 11:00:00 18.8 6 Nordeste 11 Este 0 970.1 -- 64
2020-09-23 10:00:00 15.5 2 Sudeste 8 Norte 0 970.1 -- 82
2020-09-23 09:00:00 12 3 Nordeste 5 Noroeste 0 970.1 -- 95
2020-09-23 08:00:00 12.2 3 Noroeste 5 Oeste 0 969.9 -- 97
2020-09-23 07:00:00 12.2 0 Calma 5 Sur 0 970.1 -- 95
2020-09-23 06:00:00 12.6 3 Nordeste 11 Noroeste 0 970.1 -- 91
2020-09-23 05:00:00 12.1 2 Noroeste 5 Noroeste 0 970.1 -- 95
2020-09-23 04:00:00 12.8 0 Calma 5 Oeste 0 970.4 -- 94
2020-09-23 03:00:00 13.7 0 Calma 4 Sudeste 0 970.5 -- 88
2020-09-23 02:00:00 14.2 0 Calma 9 Este 0 970.7 -- 81
2020-09-23 01:00:00 16 6 Oeste 11 Oeste 0 970.9 -- 77
2020-09-23 00:00:00 16.6 6 Oeste 8 Oeste 0 970.9 -- 83
2020-09-22 23:00:00 18.4 6 Oeste -- -- 0 971.1 -- 77
2020-09-22 22:00:00 19.1 4 Oeste 8 Oeste 0 970.7 -- 68
2020-09-22 21:00:00 19.8 5 Sudoeste 8 Sur 0 970.2 -- 63
2020-09-22 20:00:00 22.7 5 Oeste 9 Oeste 0 969.7 -- 57
2020-09-22 19:00:00 24.4 3 Oeste 13 Oeste 0 969.5 -- 43
2020-09-22 18:00:00 25.8 8 Oeste 15 Oeste 0 969.9 -- 36
2020-09-22 17:00:00 24.4 8 Oeste 18 Oeste 0 970.4 -- 39
2020-09-22 16:00:00 25.2 10 Oeste 22 Noroeste 0 971.1 -- 39
2020-09-22 15:00:00 24.4 8 Oeste 17 Oeste 0 972 -- 42
2020-09-22 14:00:00 23.4 4 Norte 13 Este 0 972.9 -- 49
2020-09-22 13:00:00 22 7 Oeste 11 Oeste 0 973.6 -- 56
2020-09-22 12:00:00 20.2 5 Noroeste 11 Oeste 0 974.3 -- 62
2020-09-22 11:00:00 18.3 5 Oeste 9 Oeste 0 974.5 -- 71
2020-09-22 10:00:00 15.7 7 Sudoeste 11 Sudoeste 0 974.6 -- 84
2020-09-22 09:00:00 13.3 5 Oeste 8 Sudoeste 0 974.4 -- 95
2020-09-22 08:00:00 12.3 4 Oeste 5 Oeste 0 974.2 -- 99
2020-09-22 07:00:00 12.1 2 Nordeste 5 Nordeste 0 974.1 -- 97
2020-09-22 06:00:00 13.7 5 Oeste 8 Sudoeste 0 974.2 -- 94
2020-09-22 05:00:00 14.1 0 Calma -- -- 0 974.6 -- 93
2020-09-22 04:00:00 14.6 3 Oeste -- -- 0 975 -- 94
2020-09-22 03:00:00 14.7 4 Sudoeste 5 Sudoeste 0 975.3 -- 94
2020-09-22 02:00:00 15.2 2 Sudoeste 5 Nordeste 0 975.6 -- 93
2020-09-22 01:00:00 15.5 5 Norte 5 Norte 0 976 -- 84
2020-09-22 00:00:00 16.5 4 Oeste 9 Oeste 0 976.1 -- 84
2020-09-21 23:00:00 18 6 Sudoeste 8 Sur 0 976 -- 71
2020-09-21 22:00:00 19.1 4 Sudeste 13 Nordeste 0 975.9 -- 64
2020-09-21 21:00:00 19.8 4 Este 8 Este 0 975.2 -- 60
2020-09-21 20:00:00 21.5 4 Oeste 13 Noroeste 0 974.7 -- 56
2020-09-21 19:00:00 23.2 6 Noroeste 15 Oeste 0 974.3 -- 48
2020-09-21 18:00:00 24.4 8 Oeste 17 Oeste 0 974.3 -- 42
2020-09-21 17:00:00 24.8 12 Oeste 22 Sudoeste 0 974.6 -- 43
2020-09-21 16:00:00 23.9 12 Sudoeste 21 Oeste 0 974.9 -- 45
2020-09-21 15:00:00 22.6 10 Oeste 21 Noroeste 0 975.6 -- 52
2020-09-21 14:00:00 22.7 12 Oeste 21 Noroeste 0 976.3 -- 52
2020-09-21 13:00:00 21.4 9 Oeste 18 Sudoeste 0 976.4 -- 58
2020-09-21 12:00:00 20.4 9 Oeste 18 Noroeste 0 976.6 -- 66
2020-09-21 11:00:00 19.1 12 Oeste 17 Oeste 0 976.7 -- 73
2020-09-21 10:00:00 17.2 10 Oeste 17 Oeste 0 976.4 -- 85
2020-09-21 09:00:00 16.2 8 Oeste 18 Oeste 0 976.3 -- 88
2020-09-21 08:00:00 14.9 11 Oeste 15 Sudoeste 0 976 -- 93
2020-09-21 07:00:00 14.7 7 Oeste 11 Sudoeste 0 975.5 -- 96
2020-09-21 06:00:00 15.6 8 Oeste 13 Oeste 0 975.4 -- 93
2020-09-21 05:00:00 16.3 5 Oeste 13 Sudoeste 0 975.3 -- 93
2020-09-21 04:00:00 16.8 6 Oeste 11 Oeste 0 975.4 -- 93
2020-09-21 03:00:00 16.5 6 Oeste 8 Oeste 0 975.5 -- 94
2020-09-21 02:00:00 17.5 6 Oeste 9 Oeste 0 975.5 -- 89
2020-09-21 01:00:00 18 5 Oeste 11 Oeste 0 975.6 -- 86
2020-09-21 00:00:00 17.6 6 Oeste 11 Sudoeste 0 975.7 -- 90
2020-09-20 23:00:00 17.3 6 Oeste 11 Oeste 0 975.6 -- 93
2020-09-20 22:00:00 18.1 6 Sudoeste 9 Oeste 0 975.2 -- 86
2020-09-20 21:00:00 18.6 7 Oeste 9 Sudoeste 0 974.6 -- 84
2020-09-20 20:00:00 19.3 7 Sudoeste 11 Oeste 0 974.1 -- 79
2020-09-20 19:00:00 20.2 6 Oeste 17 Sudoeste 0 973.8 -- 73
2020-09-20 18:00:00 20.6 14 Sudoeste 21 Oeste 0 973.8 -- 75
2020-09-20 17:00:00 21.8 10 Sudoeste 18 Sudoeste 0.1 973.5 -- 69
2020-09-20 16:00:00 23.8 8 Oeste 21 Sudoeste 0 973.4 -- 56
2020-09-20 15:00:00 24 7 Oeste 18 Oeste 0 973.6 -- 53
2020-09-20 14:00:00 22.9 5 Noroeste 13 Noroeste 0 973.9 -- 57
2020-09-20 13:00:00 22.3 8 Oeste 17 Noroeste 0 974.4 -- 59
2020-09-20 12:00:00 20.4 6 Oeste 11 Sudoeste 0 974.9 -- 69
2020-09-20 11:00:00 19 4 Este 5 Nordeste 0 974.9 -- 74
2020-09-20 10:00:00 16.2 2 Nordeste 8 Norte 0 974.7 -- 89
2020-09-20 09:00:00 13.5 2 Nordeste 4 Norte 0 974.6 -- 98
2020-09-20 08:00:00 11.9 0 Calma 4 Este 0 974.3 -- 99
2020-09-20 07:00:00 12.4 0 Calma 5 Norte 0 974.3 -- 100
2020-09-20 06:00:00 12.9 3 Norte 8 Nordeste 0 974.3 -- 99
2020-09-20 05:00:00 13.3 0 Calma -- -- 0 974.1 -- 99
2020-09-20 04:00:00 13.4 2 Norte 4 Norte 0 974.3 -- 99
2020-09-20 03:00:00 14 5 Este 5 Este 0 974.1 -- 97
2020-09-20 02:00:00 14.2 2 Noroeste 9 Oeste 0 973.9 -- 97
2020-09-20 01:00:00 15 6 Oeste 9 Oeste 0 974 -- 96
2020-09-20 00:00:00 15.6 2 Sudoeste 8 Sudoeste 0 973.9 -- 93
2020-09-19 23:00:00 16.3 4 Oeste 15 Oeste 0 973.9 -- 90
2020-09-19 22:00:00 16.3 9 Oeste 15 Oeste 0.1 973.6 -- 89
2020-09-19 21:00:00 17.1 9 Oeste 24 Oeste 0.1 973 -- 84
2020-09-19 20:00:00 17.9 8 Oeste 17 Oeste 0.4 972.1 -- 85
2020-09-19 19:00:00 20.1 5 Oeste 11 Oeste 0 971.2 -- 73
2020-09-19 18:00:00 21.2 8 Noroeste 17 Oeste 0 970.7 -- 70
2020-09-19 17:00:00 20.5 8 Sudoeste 21 Oeste 0 970.3 -- 75
2020-09-19 16:00:00 20.7 8 Oeste 21 Sudoeste 0.1 970.2 -- 71
2020-09-19 15:00:00 18.8 15 Oeste 37 Noroeste 0.2 970.2 -- 76
2020-09-19 14:00:00 23.5 17 Sur 35 Este 0 969.4 -- 51
2020-09-19 13:00:00 21.2 19 Nordeste 28 Este 0 970.1 -- 69
2020-09-19 12:00:00 18.9 18 Este 24 Este 0 970.8 -- 81
2020-09-19 11:00:00 18 5 Nordeste 13 Este 0 970.8 -- 84
2020-09-19 10:00:00 17 10 Este 13 Este 0 970.7 -- 89
2020-09-19 09:00:00 16.5 8 Norte 13 Nordeste 0 970.5 -- 96
2020-09-19 08:00:00 15.3 9 Nordeste 13 Nordeste 0 970.1 -- 96
2020-09-19 07:00:00 15.7 5 Sudeste 9 Sudeste 0.1 969.7 -- 95
2020-09-19 06:00:00 16.3 3 Sudeste 17 Sudoeste 2.5 969.8 -- 94
2020-09-19 05:00:00 17.9 10 Sudoeste 18 Sur 0.6 970.3 -- 82
2020-09-19 04:00:00 17.1 6 Este 13 Este 0 969.9 -- 79
2020-09-19 03:00:00 16.7 5 Este -- -- -- 970.2 -- 85
2020-09-19 02:00:00 17.4 8 Nordeste 11 Norte 0 970.5 -- 79
2020-09-19 01:00:00 17.6 4 Este 11 Sudoeste 0 970.7 -- 89
2020-09-19 00:00:00 18.1 6 Oeste 17 Nordeste 0 970.7 -- 90
2020-09-18 23:00:00 19 12 Nordeste 18 Nordeste 0.2 970.6 -- 91
2020-09-18 22:00:00 20 14 Este 30 Este 0 970.5 -- 80
2020-09-18 21:00:00 20.4 23 Este 32 Nordeste 0 970.2 -- 73
2020-09-18 20:00:00 22.2 24 Este 37 Este 0 969.7 -- 63
2020-09-18 19:00:00 22.7 23 Este 42 Este 0 969.5 -- 58
2020-09-18 18:00:00 24.4 23 Este 37 Este 0 968.8 -- 49
2020-09-18 17:00:00 25.9 30 Este 52 Este 0 968.8 -- 45
2020-09-18 16:00:00 25.7 33 Este 46 Este 0 969.3 -- 47
2020-09-18 15:00:00 25.2 22 Este 37 Este 0 969.7 -- 58
2020-09-18 14:00:00 23.2 16 Este 42 Este 0 970.4 -- 68
2020-09-18 13:00:00 23.3 30 Este 41 Este 0 970.8 -- 68
2020-09-18 12:00:00 22.2 26 Este 39 Este 0 971.1 -- 72
2020-09-18 11:00:00 20.9 20 Este 33 Este 0 971.2 -- 77
2020-09-18 10:00:00 19.8 17 Nordeste 24 Nordeste 0 970.5 -- 83
2020-09-18 09:00:00 19.8 19 Este 35 Este 0 969.7 -- 80
2020-09-18 08:00:00 19.1 18 Este 30 Este 0 969.9 -- 84
2020-09-18 07:00:00 18.7 7 Este 11 Nordeste 0 969.9 -- 93
2020-09-18 06:00:00 18.7 6 Sur 11 Sur 1.2 970.2 -- 93
2020-09-18 05:00:00 19.4 3 Sur 9 Nordeste 0.3 971 -- 88
2020-09-18 04:00:00 20.3 5 Sur 13 Sudoeste 0 970.5 -- 79
2020-09-18 03:00:00 21.5 7 Oeste -- -- -- 970.7 -- 68
2020-09-18 02:00:00 23.7 15 Sudeste 30 Este 0 971.1 -- 54
2020-09-18 01:00:00 23.1 23 Este 30 Este 0 970.4 -- 55
2020-09-18 00:00:00 22 8 Norte 17 Nordeste 0 970.2 -- 61
2020-09-17 23:00:00 22.8 12 Este 17 Este 0 970.4 -- 55
2020-09-17 22:00:00 24.7 9 Este 26 Este 0 970.5 -- 46
2020-09-17 21:00:00 25.6 24 Este 48 Este 0 970.3 -- 42
2020-09-17 20:00:00 28 17 Este 39 Este 0 969.5 -- 35
2020-09-17 19:00:00 28.7 23 Este 35 Este 0 969.6 -- 34
2020-09-17 18:00:00 29.3 21 Este 35 Este 0 969.9 -- 34
2020-09-17 17:00:00 29.2 25 Este 37 Este -- 970.2 -- 32
2020-09-17 16:00:00 30.3 0 Calma 42 Este -- 970.5 -- 30
2020-09-17 15:00:00 29.5 26 Este 39 Este 0.1 970.9 -- 34
2020-09-17 14:00:00 29.1 28 Este 39 Este 0 971.5 -- 39
2020-09-17 13:00:00 27.2 27 Este 41 Este 0.1 972.3 -1.3 51
2020-09-17 12:00:00 25.5 27 Este 37 Este 0 973.1 -- 57
2020-09-17 11:00:00 23 16 Nordeste 24 Este 0 973.9 -- 70
2020-09-17 10:00:00 21 10 Este 15 Este 0 973.6 -- 80
2020-09-17 09:00:00 19 3 Este 11 Este 0 973.7 -- 94
2020-09-17 08:00:00 18.6 9 Sudeste 11 Este 0 973.9 -- 91
2020-09-17 07:00:00 18.5 3 Nordeste 8 Norte 0.2 973.9 -- 92
2020-09-17 06:00:00 19 3 Este 11 Este 0 973.7 -- 84
2020-09-17 05:00:00 19 9 Este 11 Nordeste 0.1 973.9 -- 82
2020-09-17 04:00:00 18.8 0 Calma 8 Sudoeste 0 974.6 -- 79
2020-09-17 03:00:00 18.7 0 Calma -- -- -- 974.4 -- 81
2020-09-17 02:00:00 19 0 Calma 5 Noroeste 0 974.6 -- 81
2020-09-17 01:00:00 20 0 Calma 9 Sur 0 974.7 -- 76
2020-09-17 00:00:00 21.3 0 Calma 9 Este 0 974.7 -- 69
2020-09-16 23:00:00 22.1 4 Este 9 Nordeste 0 974.7 -- 64
2020-09-16 22:00:00 23.7 0 Calma 18 Norte 0 974.5 -- 55
2020-09-16 21:00:00 27.6 11 Sur 17 Sudeste 0 973.8 -- 35
2020-09-16 20:00:00 29.2 9 Sudeste 17 Este 0 973.5 -- 31
2020-09-16 19:00:00 31 10 Este 18 Este 0 973.5 -- 28
2020-09-16 18:00:00 32 12 Este 22 Este 0 973.7 -- 25
2020-09-16 17:00:00 31.5 10 Este 22 Este 0 974.1 -- 27
2020-09-16 16:00:00 32 12 Este 21 Sudeste 0 974.6 -- 28
2020-09-16 15:00:00 30.9 10 Este 22 Este 0 975.5 -- 32
2020-09-16 14:00:00 29.4 8 Este 17 Este 0 976.4 -- 37
2020-09-16 13:00:00 28 7 Este 17 Nordeste 0 977.2 -- 41
2020-09-16 12:00:00 25.5 8 Nordeste 13 Nordeste 0 977.9 -- 47
2020-09-16 11:00:00 22.6 4 Oeste 8 Oeste 0 978.2 -- 61
2020-09-16 10:00:00 19.3 6 Oeste 8 Oeste 0 978.4 -- 74
2020-09-16 09:00:00 17 0 Calma 5 Oeste 0 978.2 -- 85
2020-09-16 08:00:00 15.2 0 Calma 5 Oeste 0 978 -- 92
2020-09-16 07:00:00 15.9 2 Oeste 9 Oeste 0 977.9 -- 91
2020-09-16 06:00:00 16.2 6 Oeste 8 Oeste 0 977.8 -- 92
2020-09-16 05:00:00 16.3 0 Calma 8 Oeste 0 977.8 -- 92
2020-09-16 04:00:00 16.8 0 Calma 11 Oeste 0 977.9 -- 86
2020-09-16 03:00:00 17.3 4 Sudoeste -- -- -- 977.9 -- 86
2020-09-16 02:00:00 17.6 6 Sudoeste 9 Oeste 0 978 -- 83
2020-09-16 01:00:00 18.2 0 Calma 8 Norte 0 977.7 -- 85
2020-09-16 00:00:00 19 0 Calma 9 Sudoeste 0 977.4 -- 78
2020-09-15 23:00:00 20 3 Oeste 9 Norte 0 977.4 -- 75
2020-09-15 22:00:00 21.8 0 Calma 9 Norte 0 976.7 -- 66
2020-09-15 21:00:00 23.1 0 Calma 9 Sudeste 0 976.1 -- 62
2020-09-15 20:00:00 28.5 9 Sudeste 15 Este 0 975.9 -- 34
2020-09-15 19:00:00 30.4 10 Este 21 Este 0 975.8 -- 30
2020-09-15 18:00:00 31.3 13 Este 24 Este 0 975.7 -- 28
2020-09-15 17:00:00 31.5 10 Este 18 Este 0 976.1 -- 29
2020-09-15 16:00:00 29.7 11 Nordeste 30 Nordeste 0 976.7 -- 32
2020-09-15 15:00:00 29.9 12 Este 24 Este 0 977.2 -- 34
2020-09-15 14:00:00 28.6 13 Este 26 Este 0 977.8 -- 39
2020-09-15 13:00:00 27 18 Este 26 Este 0 978.5 -- 47
2020-09-15 12:00:00 25 16 Nordeste 24 Nordeste 0 979.2 -- 54
2020-09-15 11:00:00 23.7 17 Este 22 Este 0 979.4 -- 62
2020-09-15 10:00:00 21.4 11 Nordeste 15 Nordeste 0 979.3 -- 72
2020-09-15 09:00:00 19.2 6 Nordeste 15 Nordeste 0 979.2 -- 88
2020-09-15 08:00:00 18.4 2 Este 18 Este 0 979 -- 89
2020-09-15 07:00:00 19.1 4 Oeste 13 Oeste 0.2 979.1 -- 81
2020-09-15 06:00:00 20.4 7 Sudoeste 11 Oeste 1.3 979.1 -- 72
2020-09-15 05:00:00 20.4 0 Calma 13 Este 0 978.6 -- 71
2020-09-15 04:00:00 22.2 4 Sudeste 22 Este 0 978.3 -- 57
2020-09-15 03:00:00 21.9 15 Nordeste -- -- -- 977.9 -- 58
2020-09-15 02:00:00 22.2 9 Este 13 Este 0 977.6 -- 54
2020-09-15 01:00:00 23.6 7 Este 11 Sudeste 0 977.4 -- 46
2020-09-15 00:00:00 23.2 8 Este 17 Sudeste 0 977 -- 46
2020-09-14 23:00:00 22.6 0 Calma 9 Norte 0 977.3 -- 52
2020-09-14 22:00:00 24.7 7 Este 18 Sudeste 0 977 -- 40
2020-09-14 21:00:00 27.6 17 Este 30 Este 0 976.5 -- 32
2020-09-14 20:00:00 26.4 3 Nordeste 22 Este 0 976.6 -- 45
2020-09-14 19:00:00 29.7 14 Este 32 Este 0 976.4 -- 25
2020-09-14 18:00:00 30.6 18 Este 30 Este 0 976.5 -- 23
2020-09-14 17:00:00 31.1 20 Este 41 Este 0 976.9 -- 24
2020-09-14 16:00:00 31.1 29 Este 42 Nordeste 0 977.3 -- 24
2020-09-14 15:00:00 30 33 Este 45 Este 0 977.9 -- 28
2020-09-14 14:00:00 30 33 Este 42 Este 0 978.3 -- 29
2020-09-14 13:00:00 28.9 33 Este 45 Este 0 979.1 -- 32
2020-09-14 12:00:00 27.3 28 Este 42 Este 0 979.8 -- 36
2020-09-14 11:00:00 24.8 30 Este 37 Este 0 980.1 -- 42
2020-09-14 10:00:00 23 19 Este 24 Este 0 980.2 -- 48
2020-09-14 09:00:00 19.7 6 Este 13 Este 0 980.1 -- 59
2020-09-14 08:00:00 15.4 12 Este 13 Este 0 979.7 -- 73
2020-09-14 07:00:00 15.5 9 Este 11 Este 0 979.4 -- 70
2020-09-14 06:00:00 17 4 Este 11 Este 0 979.3 -- 69
2020-09-14 05:00:00 18 9 Este 13 Este 0 979.4 -- 60
2020-09-14 04:00:00 18.3 11 Este 13 Este 0 979.3 -- 58
2020-09-14 03:00:00 18.8 7 Este 11 Este 0 979.6 -- 56
2020-09-14 02:00:00 18.1 9 Este 13 Este 0 979.5 -- 58
2020-09-14 01:00:00 18.9 9 Este 11 Este 0 979.3 -- 56
2020-09-14 00:00:00 20.1 10 Este 13 Este 0 979.1 -- 51
2020-09-13 23:00:00 20.8 5 Este 8 Oeste 0 979.1 -- 53
2020-09-13 22:00:00 21.8 0 Calma -- -- 0 978.6 -- 56
2020-09-13 21:00:00 24.1 0 Calma 18 Este 0 977.4 -- 46
2020-09-13 20:00:00 29.4 12 Este 30 Este 0 977.1 -- 27
2020-09-13 19:00:00 32.3 23 Este 41 Este 0 976.7 -- 22
2020-09-13 18:00:00 33.2 25 Este 39 Este 0 976.9 -- 23
2020-09-13 17:00:00 32.9 28 Este 37 Nordeste 0 977.3 -- 25
2020-09-13 16:00:00 32.3 26 Este 39 Este 0 978 -- 26
2020-09-13 15:00:00 31.1 25 Este 39 Este 0 978.9 -- 28
2020-09-13 14:00:00 28.8 22 Este 32 Este 0 979.6 -- 35
2020-09-13 13:00:00 27.1 23 Este 33 Este 0 980.3 -- 41
2020-09-13 12:00:00 24.4 15 Este 22 Este 0 981 -- 50
2020-09-13 11:00:00 21.5 13 Este 18 Este 0 981.1 -- 59
2020-09-13 10:00:00 18.8 0 Calma 5 Nordeste 0 980.8 -- 64
2020-09-13 09:00:00 15 0 Calma -- -- 0 980.6 -- 84
2020-09-13 08:00:00 12.8 0 Calma -- -- 0 980.3 -- 94
2020-09-13 07:00:00 12.9 0 Calma -- -- 0 980 -- 88
2020-09-13 06:00:00 14 0 Calma 5 Oeste 0 979.7 -- 83
2020-09-13 05:00:00 14.1 4 Oeste 8 Oeste 0 979.6 -- 92
2020-09-13 04:00:00 14.5 5 Oeste 9 Oeste 0 979.4 -- 92
2020-09-13 03:00:00 15.8 0 Calma 8 Oeste 0 979.7 -- 87
2020-09-13 02:00:00 16.4 2 Oeste 8 Oeste 0 979.7 -- 88
2020-09-13 01:00:00 17.2 0 Calma 2 Oeste 0 979.8 -- 86
2020-09-13 00:00:00 18.5 2 Noroeste 8 Noroeste 0 979.6 -- 79
2020-09-12 23:00:00 20.5 0 Calma 13 Este 0 979.2 -- 71
2020-09-12 22:00:00 22.7 8 Sudeste 13 Sudeste 0 978.6 -- 55
2020-09-12 21:00:00 24 6 Este 13 Este 0 977.5 -- 43
2020-09-12 20:00:00 28 11 Este 15 Este 0 976.5 -- 26
2020-09-12 19:00:00 30.9 0 Calma 8 Oeste 0 976.2 -- 28
2020-09-12 18:00:00 31.6 6 Oeste 15 Sur 0 976.2 -- 24
2020-09-12 17:00:00 31.1 6 Sudoeste 13 Sudeste 0 976.3 -- 27
2020-09-12 16:00:00 30.2 3 Noroeste 15 Oeste 0 976.7 -- 30
2020-09-12 15:00:00 29.1 4 Sudoeste 13 Norte 0 977.1 -- 34
2020-09-12 14:00:00 27.7 6 Noroeste 13 Oeste 0 977.5 -- 39
2020-09-12 13:00:00 26.2 4 Sudoeste 11 Oeste 0 977.9 -- 45
2020-09-12 12:00:00 23.4 9 Oeste 18 Oeste 0 978.2 -- 53
2020-09-12 11:00:00 20.4 13 Oeste 17 Oeste 0 978.1 -- 58
2020-09-12 10:00:00 17.9 8 Oeste 17 Oeste 0 978 -- 62
2020-09-12 09:00:00 15.8 8 Oeste 15 Oeste 0 977.9 -- 69
2020-09-12 08:00:00 13.9 9 Oeste 15 Oeste 0 977.2 -- 77
2020-09-12 07:00:00 13.8 9 Oeste 11 Sudoeste 0 976.6 -- 81
2020-09-12 06:00:00 15 4 Oeste 11 Oeste 0 976.2 -- 81
2020-09-12 05:00:00 15.2 9 Sudoeste 13 Oeste 0 976.1 -- 78
2020-09-12 04:00:00 15.2 9 Sudoeste 11 Sudoeste 0 975.8 -- 80
2020-09-12 03:00:00 15.1 5 Oeste 8 Oeste 0 975.8 -- 92
2020-09-12 02:00:00 16 4 Oeste 9 Oeste 0 975.7 -- 89
2020-09-12 01:00:00 16.6 2 Noroeste 5 Oeste 0 975.6 -- 87
2020-09-12 00:00:00 17.2 0 Calma 11 Sudoeste 0 975.3 -- 79
2020-09-11 23:00:00 18.8 0 Calma 9 Oeste 0 974.9 -- 75
2020-09-11 22:00:00 21.4 5 Sur 13 Sudoeste 0 974.5 -- 61
2020-09-11 21:00:00 23.6 3 Oeste 18 Noroeste 0 973.6 -- 54
2020-09-11 20:00:00 27.3 8 Noroeste 22 Noroeste 0 972.6 -- 38
2020-09-11 19:00:00 29.3 11 Noroeste 26 Oeste 0 972 -- 33
2020-09-11 18:00:00 30.2 13 Oeste 22 Oeste 0 971.9 -- 31
2020-09-11 17:00:00 30.3 13 Oeste 22 Sudoeste 0 972.3 -- 32
2020-09-11 16:00:00 29.9 6 Oeste 15 Oeste 0 972.8 -- 32
2020-09-11 15:00:00 28.7 8 Oeste 18 Oeste 0 973.4 -- 37
2020-09-11 14:00:00 27.2 10 Sudoeste 18 Sudoeste 0 973.8 -- 41
2020-09-11 13:00:00 25.6 12 Oeste 21 Oeste 0 974.4 -- 46
2020-09-11 12:00:00 23.4 11 Oeste 21 Oeste 0 974.9 -- 53
2020-09-11 11:00:00 20.7 13 Oeste 21 Oeste 0 975.4 -- 60
2020-09-11 10:00:00 18.2 12 Oeste 18 Sudoeste 0 975.6 -- 66
2020-09-11 09:00:00 16.2 12 Oeste 18 Oeste 0 975.6 -- 71
2020-09-11 08:00:00 15.4 13 Oeste 17 Sudoeste 0 975.2 -- 74
2020-09-11 07:00:00 15.8 11 Oeste 17 Oeste 0 975.3 -- 74
2020-09-11 06:00:00 15.9 9 Oeste 15 Oeste 0 975.3 -- 74
2020-09-11 05:00:00 16.3 10 Oeste 15 Oeste 0 975.5 -- 73
2020-09-11 04:00:00 16.5 11 Oeste 17 Oeste 0 975.7 -- 70
2020-09-11 03:00:00 16.4 8 Oeste 13 Oeste 0 976 -- 75
2020-09-11 02:00:00 17.5 7 Oeste 15 Oeste 0 976.4 -- 68
2020-09-11 01:00:00 18.6 5 Oeste 15 Oeste 0 976.8 -- 64
2020-09-11 00:00:00 18 6 Sudoeste 9 Sudoeste 0 976.8 -- 65
2020-09-10 23:00:00 18 3 Oeste 9 Sudoeste 0 976.8 -- 67
2020-09-10 22:00:00 19.4 0 Calma 9 Oeste 0 976.5 -- 59
2020-09-10 21:00:00 23.1 3 Noroeste 15 Norte 0 976 -- 43
2020-09-10 20:00:00 25.7 9 Noroeste 24 Noroeste 0 975.6 -- 34
2020-09-10 19:00:00 27.9 11 Noroeste 26 Norte 0 975.5 -- 30
2020-09-10 18:00:00 29.1 11 Noroeste 22 Norte 0 975.4 -- 25
2020-09-10 17:00:00 29.9 13 Noroeste 24 Oeste 0 975.6 -- 23
2020-09-10 16:00:00 30.1 12 Noroeste 21 Noroeste 0 976.1 -- 24
2020-09-10 15:00:00 29.8 9 Nordeste 18 Sudoeste 0 976.6 -- 25
2020-09-10 14:00:00 27.9 13 Oeste 21 Sudoeste 0 977.4 -- 30
2020-09-10 13:00:00 26.6 12 Oeste 22 Oeste 0 978.2 -- 33
2020-09-10 12:00:00 24.2 11 Oeste 22 Oeste 0 978.8 -- 41
2020-09-10 11:00:00 21.5 13 Oeste 22 Oeste 0 979.2 -- 47
2020-09-10 10:00:00 18.4 13 Oeste 18 Oeste 0 979.2 -- 60
2020-09-10 09:00:00 16.2 16 Oeste 26 Oeste 0 979.2 -- 68
2020-09-10 08:00:00 15.4 14 Oeste 21 Oeste 0 979 -- 71
2020-09-10 07:00:00 15.8 12 Oeste 21 Oeste 0 979.1 -- 71
2020-09-10 06:00:00 15.9 10 Oeste 17 Oeste 0 979.2 -- 73
2020-09-10 05:00:00 16.6 9 Oeste 15 Noroeste 0 979.5 -- 71
2020-09-10 04:00:00 17 8 Oeste 15 Oeste 0 979.6 -- 72
2020-09-10 03:00:00 17.6 9 Oeste 15 Oeste 0 979.5 -- 70
2020-09-10 02:00:00 18.5 9 Oeste 17 Sudoeste 0 980.1 -- 64
2020-09-10 01:00:00 19.5 9 Sudoeste 17 Sudoeste 0 980.1 -- 56
2020-09-10 00:00:00 20.5 10 Oeste 15 Oeste 0 980.5 -- 52
2020-09-09 23:00:00 20.6 0 Calma 17 Sudeste 0 980.1 -- 62
2020-09-09 22:00:00 22.3 8 Sudoeste 15 Oeste 0 979.7 -- 52
2020-09-09 21:00:00 23.7 6 Oeste 22 Norte 0 978.5 -- 49
2020-09-09 20:00:00 26.3 17 Norte 32 Norte 0 977.6 -- 39
2020-09-09 19:00:00 28.9 11 Noroeste 22 Norte 0 976.9 -- 30
2020-09-09 18:00:00 30.1 10 Norte 28 Oeste 0 976.7 -- 25
2020-09-09 17:00:00 30.5 9 Norte 22 Norte 0 976.8 -- 23
2020-09-09 16:00:00 30.4 10 Norte 24 Oeste 0 977.3 -- 22
2020-09-09 15:00:00 28.9 13 Oeste 24 Oeste 0 977.8 -- 25
2020-09-09 14:00:00 27 10 Oeste 17 Oeste 0 978.7 -- 29
2020-09-09 13:00:00 24.4 9 Oeste 15 Noroeste 0 979.7 -- 38
2020-09-09 12:00:00 22.1 10 Noroeste 17 Noroeste 0 980.4 -- 46
2020-09-09 11:00:00 19.4 10 Oeste 15 Oeste 0 981 -- 53
2020-09-09 10:00:00 16.5 9 Oeste 15 Oeste 0 980.9 -- 62
2020-09-09 09:00:00 13.5 9 Oeste 11 Oeste 0 980.8 -- 74
2020-09-09 08:00:00 11.2 10 Oeste 13 Oeste 0 980.7 -- 79
2020-09-09 07:00:00 11.1 0 Calma 8 Oeste 0 980.6 -- 84
2020-09-09 06:00:00 11.4 0 Calma 5 Oeste 0 980.4 -- 86
2020-09-09 05:00:00 11.7 2 Sudoeste 9 Sudoeste 0 980.3 -- 85
2020-09-09 04:00:00 12.3 3 Sudoeste 8 Oeste 0 980.5 -- 85
2020-09-09 03:00:00 13.5 0 Calma 9 Sudoeste 0 980.7 -- 80
2020-09-09 02:00:00 14.2 5 Sudoeste 8 Sudoeste 0 980.7 -- 78
2020-09-09 01:00:00 14.8 0 Calma 8 Sur 0 980.8 -- 76
2020-09-09 00:00:00 15.8 0 Calma 11 Este 0 980.9 -- 73
2020-09-08 23:00:00 17 5 Este 13 Este 0 980.8 -- 61
2020-09-08 22:00:00 18.5 9 Este 18 Este 0 980.3 -- 50
2020-09-08 21:00:00 20.3 0 Calma 22 Sudeste 0 979.6 -- 50
2020-09-08 20:00:00 25.7 9 Este 26 Este 0 979.3 -- 23
2020-09-08 19:00:00 27.1 20 Este 26 Este 0 979.2 -- 19
2020-09-08 18:00:00 27.3 19 Este 30 Este 0 979.3 -- 18
2020-09-08 17:00:00 27.4 6 Sudeste 17 Este 0 979.6 -- 18
2020-09-08 16:00:00 26.6 5 Este 18 Sudeste 0 980.4 -- 22
2020-09-08 15:00:00 25.4 11 Sudeste 18 Este 0 981.1 -- 24
2020-09-08 14:00:00 24.2 7 Este 21 Este 0 981.8 -- 24
2020-09-08 13:00:00 22.9 8 Sudeste 13 Este 0 982.6 -- 35
2020-09-08 12:00:00 20.4 5 Oeste 13 Oeste 0 983.2 -- 45
2020-09-08 11:00:00 17.9 8 Oeste 15 Oeste 0 983.5 -- 59
2020-09-08 10:00:00 15.1 9 Oeste 13 Oeste 0 983.6 -- 67
2020-09-08 09:00:00 12.9 12 Oeste 15 Oeste 0 983.6 -- 75
2020-09-08 08:00:00 11 8 Oeste 11 Oeste 0 983.3 -- 82
2020-09-08 07:00:00 11.3 6 Oeste 11 Oeste 0 982.8 -- 80
2020-09-08 06:00:00 12.1 8 Oeste 15 Oeste 0 982.8 -- 78
2020-09-08 05:00:00 12.3 10 Oeste 18 Oeste 0 982.5 -- 77
2020-09-08 04:00:00 12.9 9 Oeste 15 Oeste 0 982.5 -- 74
2020-09-08 03:00:00 13.8 9 Oeste 18 Oeste 0 982.7 -- 69
2020-09-08 02:00:00 14.8 11 Oeste 21 Sudoeste 0 983.1 -- 68
2020-09-08 01:00:00 15.4 10 Oeste 21 Oeste 0 983.5 -- 64
2020-09-08 00:00:00 15.6 13 Oeste 22 Oeste 0 983.7 -- 63
2020-09-07 23:00:00 15.8 8 Oeste 17 Oeste 0 983.3 -- 62
2020-09-07 22:00:00 16.3 10 Oeste 17 Oeste 0 982.7 -- 57
2020-09-07 21:00:00 17.2 10 Oeste 18 Noroeste 0 981.9 -- 53
2020-09-07 20:00:00 19.8 11 Noroeste 21 Norte 0 981.3 -- 42
2020-09-07 19:00:00 21.2 12 Noroeste 24 Norte 0 980.8 -- 34
2020-09-07 18:00:00 22.4 11 Noroeste 30 Norte 0 980.4 -- 32
2020-09-07 17:00:00 23.1 14 Noroeste 24 Norte 0 980 -- 31
2020-09-07 16:00:00 23 13 Noroeste 26 Noroeste 0 980.2 -- 32
2020-09-07 15:00:00 22.5 17 Norte 28 Norte 0 980.5 -- 31
2020-09-07 14:00:00 21.8 13 Norte 24 Noroeste 0 980.9 -- 34
2020-09-07 13:00:00 21 12 Noroeste 30 Oeste 0 981.5 -- 39
2020-09-07 12:00:00 19.6 9 Noroeste 28 Oeste 0 981.6 -- 48
2020-09-07 11:00:00 18.4 13 Oeste 22 Oeste 0 981.3 -- 59
2020-09-07 10:00:00 16.8 9 Oeste 22 Oeste 0 981 -- 65
2020-09-07 09:00:00 15.8 8 Oeste 21 Oeste 0 980.8 -- 67
2020-09-07 08:00:00 14.9 6 Oeste 18 Noroeste 0 980 -- 67
2020-09-07 07:00:00 15.5 8 Oeste 18 Noroeste 0 979.8 -- 65
2020-09-07 06:00:00 13.9 6 Oeste 15 Oeste 0 979.4 -- 76
2020-09-07 05:00:00 15.6 13 Oeste 22 Oeste 0 979.3 -- 63
2020-09-07 04:00:00 15.9 11 Oeste 18 Oeste 0 979.9 -- 66
2020-09-07 03:00:00 16.3 9 Oeste 21 Oeste 0 980.2 -- 64
2020-09-07 02:00:00 16.4 8 Oeste 18 Oeste 0 980.3 -- 65
2020-09-07 01:00:00 16.6 8 Oeste 17 Noroeste 0 980.4 -- 64
2020-09-07 00:00:00 16.7 8 Oeste 21 Oeste 0 980.1 -- 63
2020-09-06 23:00:00 16.7 10 Noroeste 21 Noroeste 0 980.2 -- 63
2020-09-06 22:00:00 17.1 10 Oeste 22 Noroeste 0 979.7 -- 63
2020-09-06 21:00:00 17.8 10 Noroeste 30 Norte 0 979.2 -- 62
2020-09-06 20:00:00 18.8 13 Noroeste 33 Oeste 0 978.8 -- 56
2020-09-06 19:00:00 20.6 11 Noroeste 32 Norte 0 978.4 -- 49
2020-09-06 18:00:00 22.1 13 Noroeste 32 Noroeste 0 978.1 -- 43
2020-09-06 17:00:00 22.7 12 Noroeste 30 Noroeste 0 978.3 -- 41
2020-09-06 16:00:00 21.4 7 Noroeste 26 Sudoeste 0 978.3 -- 47
2020-09-06 15:00:00 20.8 12 Oeste 26 Oeste 0 979.1 -- 50
2020-09-06 14:00:00 19.6 11 Noroeste 30 Norte 0 979.6 -- 55
2020-09-06 13:00:00 19 10 Noroeste 28 Noroeste 0 980 -- 59
2020-09-06 12:00:00 18.8 12 Oeste 22 Norte 0 979.9 -- 61
2020-09-06 11:00:00 18.4 12 Oeste 18 Noroeste 0 979.9 -- 64
2020-09-06 10:00:00 17.7 10 Noroeste 18 Oeste 0 979.6 -- 67
2020-09-06 09:00:00 17.4 10 Sudoeste 17 Oeste 0 979.5 -- 68
2020-09-06 08:00:00 17.4 10 Oeste 15 Oeste 0 979.4 -- 70
2020-09-06 07:00:00 17.7 8 Oeste 18 Oeste 0 979.2 -- 69
2020-09-06 06:00:00 17.9 10 Oeste 21 Noroeste 0 979.4 -- 67
2020-09-06 05:00:00 17.9 8 Oeste 15 Oeste 0 979.6 -- 70
2020-09-06 04:00:00 18 9 Oeste 21 Oeste 0 979.9 -- 69
2020-09-06 03:00:00 18.4 9 Oeste 21 Oeste 0 980.1 -- 67
2020-09-06 02:00:00 18.6 10 Oeste 21 Noroeste 0 980.4 -- 66
2020-09-06 01:00:00 18.8 8 Noroeste 22 Noroeste 0 980.5 -- 68
2020-09-06 00:00:00 19.1 10 Noroeste 26 Oeste 0 980.5 -- 67
2020-09-05 23:00:00 19.2 8 Oeste 17 Oeste 0 980.4 -- 70
2020-09-05 22:00:00 19.6 10 Oeste 15 Oeste 0 980.1 -- 70
2020-09-05 21:00:00 20.3 9 Oeste 21 Noroeste 0 979.4 -- 65
2020-09-05 20:00:00 21.9 7 Noroeste 28 Noroeste 0 978.9 -- 59
2020-09-05 19:00:00 24.1 12 Noroeste 26 Noroeste 0 978.6 -- 53
2020-09-05 18:00:00 25.8 11 Noroeste 28 Noroeste 0 978.4 -- 48
2020-09-05 17:00:00 27.2 11 Noroeste 28 Oeste 0 978.4 -- 44
2020-09-05 16:00:00 27 11 Noroeste 22 Noroeste 0 978.9 -- 45
2020-09-05 15:00:00 26.9 11 Noroeste 21 Norte 0 979.4 -- 46
2020-09-05 14:00:00 26.4 12 Noroeste 24 Oeste 0 979.8 -- 49
2020-09-05 13:00:00 25.6 12 Oeste 21 Oeste 0 980.1 -- 51
2020-09-05 12:00:00 24.5 13 Oeste 21 Oeste 0 980.5 -- 53
2020-09-05 11:00:00 23.2 10 Oeste 21 Oeste 0 980.7 -- 58
2020-09-05 10:00:00 21 13 Oeste 21 Oeste 0 980.6 -- 63
2020-09-05 09:00:00 18.1 10 Oeste 15 Oeste 0 980.3 -- 70
2020-09-05 08:00:00 15 7 Sudoeste 9 Sudoeste 0 979.8 -- 82
2020-09-05 07:00:00 14.2 0 Calma -- -- 0 979.2 -- 88
2020-09-05 06:00:00 15.1 4 Oeste -- -- 0 978.8 -- 83
2020-09-05 05:00:00 14.9 3 Oeste 5 Oeste 0 978.5 -- 90
2020-09-05 04:00:00 15.6 0 Calma 8 Oeste 0 978.7 -- 87
2020-09-05 03:00:00 16 0 Calma 5 Noroeste 0 978.7 -- 81
2020-09-05 02:00:00 16.9 0 Calma 5 Noroeste 0 978.9 -- 82
2020-09-05 01:00:00 17.9 0 Calma 8 Este 0 978.7 -- 76
2020-09-05 00:00:00 19.3 3 Este 5 Este 0 978.4 -- 67
2020-09-04 23:00:00 20.7 0 Calma 4 Sur 0 978.3 -- 56
2020-09-04 22:00:00 21.9 0 Calma 9 Este 0 977.9 -- 58
2020-09-04 21:00:00 23.7 0 Calma 13 Este 0 977.4 -- 54
2020-09-04 20:00:00 30.9 12 Este 24 Este 0 977.1 -- 25
2020-09-04 19:00:00 32.2 17 Este 30 Este 0 977.3 -- 25
2020-09-04 18:00:00 32.5 22 Este 33 Este 0 977.4 -- 28
2020-09-04 17:00:00 32.2 23 Este 33 Este 0 977.9 -- 30
2020-09-04 16:00:00 31.5 24 Este 32 Este 0 978.8 -- 30
2020-09-04 15:00:00 30.3 22 Nordeste 33 Este 0 979.8 -- 34
2020-09-04 14:00:00 28.3 20 Este 30 Este 0 980.6 -- 39
2020-09-04 13:00:00 26.6 19 Nordeste 28 Este 0 981.6 -- 43
2020-09-04 12:00:00 24.5 18 Este 28 Este 0 982 -- 49
2020-09-04 11:00:00 22 13 Este 22 Este 0 982.3 -- 52
2020-09-04 10:00:00 19.5 12 Este 15 Este 0 981.9 -- 61
2020-09-04 09:00:00 14.3 0 Calma -- -- 0 981.9 -- 74
2020-09-04 08:00:00 10.7 0 Calma 8 Oeste 0 981.3 -- 95
2020-09-04 07:00:00 10.1 0 Calma -- -- 0 980.9 -- 89
2020-09-04 06:00:00 10.3 0 Calma -- -- 0 980.6 -- 90
2020-09-04 05:00:00 11.3 0 Calma -- -- 0 980.6 -- 92
2020-09-04 04:00:00 11.7 0 Calma -- -- 0 980.8 -- 84
2020-09-04 03:00:00 12.9 0 Calma -- -- 0 980.9 -- 86
2020-09-04 02:00:00 13.6 0 Calma -- -- 0 980.9 -- 85
2020-09-04 01:00:00 14.1 0 Calma -- -- 0 980.8 -- 82
2020-09-04 00:00:00 15.3 0 Calma 5 Oeste 0 980.5 -- 82
2020-09-03 23:00:00 16.6 0 Calma -- -- 0 980.2 -- 77
2020-09-03 22:00:00 18.3 0 Calma -- -- 0 979.5 -- 68
2020-09-03 21:00:00 21 5 Norte 11 Sudeste 0 978.5 -- 55
2020-09-03 20:00:00 29.5 6 Sudeste 15 Este 0 977.9 -- 22
2020-09-03 19:00:00 30.5 10 Este 17 Este 0 977.9 -- 15
2020-09-03 18:00:00 30.8 10 Este 18 Nordeste 0 977.9 -- 14
2020-09-03 17:00:00 30.1 10 Este 17 Este 0 978.2 -- 14
2020-09-03 16:00:00 29 7 Este 17 Este 0 978.7 -- 18
2020-09-03 15:00:00 27.8 5 Sudeste 13 Sudeste 0 979.4 -- 18
2020-09-03 14:00:00 25.5 7 Oeste 11 Nordeste 0 979.9 -- 26
2020-09-03 13:00:00 23.9 5 Sur 11 Oeste 0 980.4 -- 31
2020-09-03 12:00:00 20.8 4 Oeste 11 Oeste 0 980.9 -- 42
2020-09-03 11:00:00 17.7 8 Oeste 13 Oeste 0 981 -- 52
2020-09-03 10:00:00 15 6 Oeste 9 Oeste 0 980.6 -- 65
2020-09-03 09:00:00 12.5 0 Calma 4 Este 0 980.4 -- 79
2020-09-03 08:00:00 9.8 4 Oeste -- -- 0 979.9 -- 84
2020-09-03 07:00:00 9.9 6 Sudoeste 8 Sudoeste 0 979.4 -- 89
2020-09-03 06:00:00 9.9 0 Calma 9 Oeste 0 979.3 -- 80
2020-09-03 05:00:00 12.2 8 Oeste 13 Oeste 0 979 -- 74
2020-09-03 04:00:00 11.8 10 Sudoeste 13 Sudoeste 0 978.9 -- 78
2020-09-03 03:00:00 11.2 0 Calma 5 Sudeste 0 978.9 -- 85
2020-09-03 02:00:00 12 2 Oeste 9 Sudoeste 0 979 -- 79
2020-09-03 01:00:00 12.7 2 Oeste 9 Oeste 0 978.8 -- 83
2020-09-03 00:00:00 13.8 0 Calma 8 Norte 0 978.9 -- 75
2020-09-02 23:00:00 15.7 0 Calma 13 Noroeste 0 978.6 -- 71
2020-09-02 22:00:00 18.1 2 Oeste 11 Noroeste 0 978.1 -- 56
2020-09-02 21:00:00 21 6 Sudoeste 15 Noroeste 0 977 -- 40
2020-09-02 20:00:00 23.8 8 Noroeste 22 Noroeste 0 976.1 -- 33
2020-09-02 19:00:00 25.7 9 Noroeste 21 Noroeste 0 975.6 -- 30
2020-09-02 18:00:00 26.4 11 Noroeste 21 Noroeste 0 975.2 -- 29
2020-09-02 17:00:00 26.7 10 Noroeste 18 Noroeste 0 975.1 -- 28
2020-09-02 16:00:00 25.9 9 Noroeste 24 Oeste 0 975.4 -- 29
2020-09-02 15:00:00 25 11 Noroeste 22 Oeste 0 975.9 -- 32
2020-09-02 14:00:00 23.9 13 Oeste 24 Oeste 0 976.1 -- 35
2020-09-02 13:00:00 22.6 12 Oeste 22 Oeste 0 976.7 -- 41
2020-09-02 12:00:00 21.1 12 Oeste 24 Oeste 0 977.1 -- 50
2020-09-02 11:00:00 19.4 12 Oeste 21 Oeste 0 977.1 -- 58
2020-09-02 10:00:00 16.9 10 Oeste 17 Oeste 0 977.1 -- 69
2020-09-02 09:00:00 14.3 11 Oeste 15 Oeste 0 977.1 -- 76
2020-09-02 08:00:00 12.6 5 Noroeste 13 Oeste 0 976.8 -- 84
2020-09-02 07:00:00 12.8 8 Oeste 13 Oeste 0 976.5 -- 84
2020-09-02 06:00:00 13 3 Oeste 13 Oeste 0 976 -- 84
2020-09-02 05:00:00 13.2 7 Oeste 9 Oeste 0 975.9 -- 88
2020-09-02 04:00:00 14.1 6 Oeste 11 Oeste 0 975.7 -- 83
2020-09-02 03:00:00 14.8 6 Oeste 13 Oeste 0 975.6 -- 79
2020-09-02 02:00:00 15.5 8 Oeste 13 Oeste 0 975.7 -- 74
2020-09-02 01:00:00 16.2 9 Oeste 13 Oeste 0 975.7 -- 72
2020-09-02 00:00:00 16.8 8 Oeste 13 Oeste 0 975.4 -- 64
2020-09-01 23:00:00 17.5 8 Oeste 11 Oeste 0 975 -- 56
2020-09-01 22:00:00 19 6 Oeste 13 Sudoeste 0 974.5 -- 51
2020-09-01 21:00:00 20.4 0 Calma 21 Norte 0 973.4 -- 52
2020-09-01 20:00:00 22.9 9 Noroeste 28 Noroeste 0 972.2 -- 39
2020-09-01 19:00:00 24.5 13 Noroeste 30 Norte 0 971.7 -- 30
2020-09-01 18:00:00 26.4 9 Noroeste 22 Norte 0 971.2 -- 24
2020-09-01 17:00:00 25.9 11 Noroeste 22 Noroeste 0 971.2 -- 26
2020-09-01 16:00:00 26.1 9 Oeste 18 Sudoeste 0 971.4 -- 22
2020-09-01 15:00:00 25.8 6 Oeste 15 Sur 0 972 -- 26
2020-09-01 14:00:00 25.1 6 Oeste 13 Sudoeste 0 972.5 -- 28
2020-09-01 13:00:00 24 6 Oeste 15 Oeste 0 973.1 -- 29
2020-09-01 12:00:00 20 10 Oeste 17 Oeste 0 973.8 -- 50
2020-09-01 11:00:00 18.4 12 Oeste 18 Oeste 0 973.9 -- 55
2020-09-01 10:00:00 17.6 12 Oeste 18 Oeste 0 973.9 -- 58
2020-09-01 09:00:00 14.8 9 Oeste 15 Oeste 0 973.9 -- 70
2020-09-01 08:00:00 13.4 8 Oeste 11 Oeste 0 974.1 -- 77
2020-09-01 07:00:00 13.6 8 Oeste 13 Oeste 0 973.9 -- 76
2020-09-01 06:00:00 13.2 7 Oeste 11 Oeste 0 974.1 -- 79
2020-09-01 05:00:00 13.3 5 Oeste 9 Oeste 0 974.6 -- 79
2020-09-01 04:00:00 13.1 0 Calma 8 Oeste 0 974.7 -- 84
2020-09-01 03:00:00 13.5 5 Oeste 8 Oeste 0 975.1 -- 81
2020-09-01 02:00:00 13.7 0 Calma -- -- 0 975.5 -- 83
2020-09-01 01:00:00 14.2 0 Calma 8 Noroeste 0 975.7 -- 81
2020-09-01 00:00:00 15.7 0 Calma 11 Sudeste 0 975.4 -- 75
2020-08-31 23:00:00 17.3 3 Sudeste 13 Este 0 975.4 -- 63
2020-08-31 22:00:00 19.1 12 Sudeste 18 Sudeste 0 975.1 -- 46
2020-08-31 21:00:00 19.4 2 Sudoeste 8 Oeste 0 974.4 -- 44
2020-08-31 20:00:00 21.5 4 Noroeste 11 Norte 0 974.1 -- 38
2020-08-31 19:00:00 24.5 5 Noroeste 18 Norte 0 974.3 -- 28
2020-08-31 18:00:00 25.5 9 Oeste 18 Oeste 0 974.4 -- 25
2020-08-31 17:00:00 25.6 12 Oeste 30 Sudoeste 0 975 -- 23
2020-08-31 16:00:00 24.8 10 Noroeste 18 Noroeste 0 975.6 -- 25
2020-08-31 15:00:00 23.5 9 Oeste 18 Oeste 0 976.4 -- 23
2020-08-31 14:00:00 21.9 9 Oeste 18 Oeste 0 977.2 -- 29
2020-08-31 13:00:00 20.4 8 Oeste 13 Noroeste 0 977.8 -- 35
2020-08-31 12:00:00 18.5 6 Oeste 15 Oeste 0 978.5 -- 47
2020-08-31 11:00:00 15.8 8 Oeste 17 Sudoeste 0 978.9 -- 61
2020-08-31 10:00:00 13.7 7 Oeste 15 Oeste 0 979.2 -- 71
2020-08-31 09:00:00 11.3 7 Oeste 13 Oeste 0 979 -- 81
2020-08-31 08:00:00 9.4 6 Sudoeste 9 Sudoeste 0 978.9 -- 86
2020-08-31 07:00:00 9.5 8 Sudoeste 13 Oeste 0 978.7 -- 89
2020-08-31 06:00:00 9.9 2 Sudoeste 13 Oeste 0 978.7 -- 89
2020-08-31 05:00:00 10.5 8 Oeste 17 Oeste 0 979 -- 87
2020-08-31 04:00:00 10.6 5 Oeste 9 Sudoeste 0 979.1 -- 89
2020-08-31 03:00:00 11.3 4 Oeste 13 Sudoeste 0 979.2 -- 86
2020-08-31 02:00:00 12.2 7 Sudoeste 11 Sudoeste 0 979.4 -- 82
2020-08-31 01:00:00 13.2 6 Oeste 11 Oeste 0 979.2 -- 79
2020-08-31 00:00:00 14.7 3 Oeste 13 Oeste 0 979 -- 68
2020-08-30 23:00:00 15.3 7 Oeste 17 Oeste 0 978.8 -- 67
2020-08-30 22:00:00 15.7 8 Oeste 17 Oeste 0 978.2 -- 63
2020-08-30 21:00:00 15.9 10 Oeste 22 Noroeste 0 977.5 -- 60
2020-08-30 20:00:00 17 12 Noroeste 18 Noroeste 0 976.8 -- 54
2020-08-30 19:00:00 17.8 12 Oeste 28 Noroeste 0 976.1 -- 53
2020-08-30 18:00:00 18.4 12 Noroeste 22 Oeste 0 975.6 -- 52
2020-08-30 17:00:00 18.4 13 Oeste 22 Oeste 0 975.3 -- 50
2020-08-30 16:00:00 19.7 15 Oeste 26 Oeste 0 975.3 -- 45
2020-08-30 15:00:00 17 10 Oeste 24 Oeste 0 976.1 -- 56
2020-08-30 14:00:00 17.7 13 Noroeste 24 Sudoeste 0 975.9 -- 52
2020-08-30 13:00:00 16.8 17 Oeste 28 Oeste 0 976 -- 57
2020-08-30 12:00:00 15.7 10 Oeste 28 Oeste 0 975.6 -- 61
2020-08-30 11:00:00 15.9 13 Oeste 33 Oeste 0 974.8 -- 60
2020-08-30 10:00:00 14.8 14 Oeste 22 Oeste 0 974.3 -- 65
2020-08-30 09:00:00 12.9 6 Oeste 18 Oeste 0 973.9 -- 77
2020-08-30 08:00:00 12.4 12 Oeste 22 Sudoeste 0 973.2 -- 78
2020-08-30 07:00:00 12.2 10 Oeste 18 Oeste 0 973 -- 80
2020-08-30 06:00:00 12.8 10 Oeste 21 Oeste 0 972.7 -- 76
2020-08-30 05:00:00 13.1 13 Oeste 22 Sudoeste 0 972.4 -- 74
2020-08-30 04:00:00 12.9 12 Oeste 21 Sudoeste 0 972.3 -- 78
2020-08-30 03:00:00 13.2 14 Oeste 30 Oeste 0 972.3 -- 77
2020-08-30 02:00:00 13.3 14 Oeste 28 Sudoeste 0 972.7 -- 77
2020-08-30 01:00:00 13.5 15 Sudoeste 26 Sudoeste 0 972.7 -- 72
2020-08-30 00:00:00 13.4 15 Oeste 26 Sudoeste 0 972.4 -- 75
2020-08-29 23:00:00 14.1 17 Oeste 28 Oeste 0 971.9 -- 79
2020-08-29 22:00:00 13.9 13 Oeste 26 Oeste 0.5 970.9 -- 84
2020-08-29 21:00:00 16.1 15 Oeste 28 Sudoeste 0 970 -- 65
2020-08-29 20:00:00 17 13 Noroeste 28 Oeste 0 969.2 -- 60
2020-08-29 19:00:00 18.4 16 Oeste 33 Oeste 0 968.2 -- 54
2020-08-29 18:00:00 18.7 13 Noroeste 28 Noroeste 0 967.5 -- 60
2020-08-29 17:00:00 19.1 19 Oeste 30 Oeste 0.1 967.1 -- 60
2020-08-29 16:00:00 20.3 18 Oeste 35 Oeste 0 967 -- 46
2020-08-29 15:00:00 20.9 26 Oeste 41 Sudoeste 0 966.7 -- 43
2020-08-29 14:00:00 21.1 15 Oeste 26 Oeste 0 966.6 -- 42
2020-08-29 13:00:00 20.2 12 Oeste 30 Oeste 0 967.1 -- 44
2020-08-29 12:00:00 19.1 14 Oeste 33 Oeste 0 967.3 -- 48
2020-08-29 11:00:00 17.7 16 Oeste 30 Oeste 0 967.6 -- 53
2020-08-29 10:00:00 16.9 13 Oeste 30 Oeste 0 967.6 -- 59
2020-08-29 09:00:00 15.6 11 Oeste 21 Oeste 0 967.3 -- 64
2020-08-29 08:00:00 14 8 Oeste 15 Oeste 0 967.2 -- 72
2020-08-29 07:00:00 13.5 9 Oeste 15 Oeste 0 967.3 -- 80
2020-08-29 06:00:00 13.3 6 Oeste 11 Sudoeste 0 967.1 -- 84
2020-08-29 05:00:00 13.5 6 Oeste 13 Oeste 0 967.5 -- 78
2020-08-29 04:00:00 14.9 8 Oeste 26 Noroeste 0 967.8 -- 74
2020-08-29 03:00:00 15.9 7 Oeste 13 Oeste 0 968.2 -- 66
2020-08-29 02:00:00 16.3 6 Oeste 17 Norte 0 968.6 -- 64
2020-08-29 01:00:00 16.8 11 Oeste 22 Oeste 0 969.1 -- 56
2020-08-29 00:00:00 16.9 6 Oeste 15 Oeste 0 969.2 -- 63
2020-08-28 23:00:00 17 4 Sur 18 Oeste 0 969.3 -- 65
2020-08-28 22:00:00 17.2 10 Oeste 21 Noroeste 0 969.3 -- 61
2020-08-28 21:00:00 17.3 11 Oeste 26 Noroeste 0 969.1 -- 63
2020-08-28 20:00:00 17.9 7 Oeste 24 Oeste 0 968.8 -- 63
2020-08-28 19:00:00 18.4 9 Noroeste 17 Noroeste 0 968.5 -- 61
2020-08-28 18:00:00 18.2 9 Noroeste 32 Noroeste 0 968.5 -- 65
2020-08-28 17:00:00 19.6 10 Noroeste 26 Norte 0 968.6 -- 64
2020-08-28 16:00:00 20.6 9 Noroeste 18 Oeste 0 968.6 -- 60
2020-08-28 15:00:00 20 9 Noroeste 24 Noroeste 0 969.3 -- 65
2020-08-28 14:00:00 20.3 12 Noroeste 28 Noroeste 0 969.5 -- 65
2020-08-28 13:00:00 20.8 13 Noroeste 21 Noroeste 0 969.8 -- 64
2020-08-28 12:00:00 20.2 6 Oeste 15 Oeste 0 970 -- 67
2020-08-28 11:00:00 19.5 6 Oeste 22 Noroeste 0 970 -- 70
2020-08-28 10:00:00 20.8 10 Oeste 17 Oeste 0 969.6 -- 74
2020-08-28 09:00:00 21.3 9 Oeste 13 Oeste 0 969.7 -- 77
2020-08-28 08:00:00 21.1 8 Oeste 13 Oeste 0 970.2 -- 77
2020-08-28 07:00:00 21.2 6 Oeste 15 Oeste 0 970.3 -- 75
2020-08-28 06:00:00 21.2 12 Oeste 18 Oeste 0 970.6 -- 75
2020-08-28 05:00:00 20.5 7 Oeste 15 Oeste 0 971 -- 79
2020-08-28 04:00:00 19.8 7 Oeste 9 Oeste 0 971.2 -- 84
2020-08-28 03:00:00 20.1 5 Oeste 11 Oeste 0 971.9 -- 82
2020-08-28 02:00:00 20.7 7 Sudoeste 9 Sudoeste 0 972.6 -- 79
2020-08-28 01:00:00 21.7 8 Oeste 13 Oeste 0 973.2 -- 75
2020-08-28 00:00:00 22.3 8 Oeste 15 Oeste 0 973.7 -- 73
2020-08-27 23:00:00 22.8 6 Oeste 13 Oeste 0 973.9 -- 73
2020-08-27 22:00:00 24.6 6 Oeste 9 Oeste 0 973.8 -- 66
2020-08-27 21:00:00 26.4 4 Oeste 26 Nordeste 0 972.9 -- 58
2020-08-27 20:00:00 30.2 19 Nordeste 26 Nordeste 0 972.1 -- 43
2020-08-27 19:00:00 32.6 10 Norte 28 Norte 0 971.6 -- 35
2020-08-27 18:00:00 34.3 9 Noroeste 18 Oeste 0 971.8 -- 31
2020-08-27 17:00:00 34.5 6 Noroeste 18 Oeste 0 972.2 -- 30
2020-08-27 16:00:00 34.1 6 Oeste 17 Oeste 0 973.1 -- 29
2020-08-27 15:00:00 32.4 6 Oeste 11 Sudoeste 0 974.2 -- 31
2020-08-27 14:00:00 31.2 6 Noroeste 11 Noroeste 0 975.1 -- 34
2020-08-27 13:00:00 29.8 5 Oeste 15 Sudoeste 0 975.8 -- 40
2020-08-27 12:00:00 27.8 9 Oeste 18 Oeste 0 976.7 -- 47
2020-08-27 11:00:00 24.8 13 Oeste 21 Oeste 0 977 -- 61
2020-08-27 10:00:00 22.3 12 Oeste 18 Oeste 0 977.2 -- 71
2020-08-27 09:00:00 20.1 11 Oeste 15 Oeste 0 977.4 -- 81
2020-08-27 08:00:00 18.5 9 Oeste 13 Oeste 0 977.3 -- 89
2020-08-27 07:00:00 18.6 8 Oeste 15 Oeste 0 977.1 -- 89
2020-08-27 06:00:00 19.1 10 Oeste 13 Oeste 0 976.8 -- 86
2020-08-27 05:00:00 18.8 9 Oeste 11 Oeste 0 977 -- 89
2020-08-27 04:00:00 18.8 0 Calma 9 Oeste 0 977.4 -- 91
2020-08-27 03:00:00 19.8 6 Sudoeste 9 Sudoeste 0 977.6 -- 83
2020-08-27 02:00:00 20.4 0 Calma 9 Este 0 978 -- 85
2020-08-27 01:00:00 21.4 2 Nordeste 11 Sudeste 0 978.3 -- 76
2020-08-27 00:00:00 21.9 0 Calma 13 Sudeste 0 978.2 -- 76
2020-08-26 23:00:00 24.3 6 Sudeste 15 Este 0 977.8 -- 62
2020-08-26 22:00:00 25.6 11 Este 18 Este 0 977 -- 58
2020-08-26 21:00:00 28 3 Nordeste 18 Nordeste 0 975.9 -- 50
2020-08-26 20:00:00 31.4 0 Calma 13 Noroeste 0 975.4 -- 37
2020-08-26 19:00:00 32.6 7 Noroeste 21 Oeste 0 975.4 -- 34
2020-08-26 18:00:00 34 4 Sudoeste 13 Sudoeste 0 975.3 -- 30
2020-08-26 17:00:00 33.8 3 Sur 13 Oeste 0 975.5 -- 30
2020-08-26 16:00:00 32.1 3 Noroeste 9 Noroeste 0 976 -- 32
2020-08-26 15:00:00 30.9 5 Oeste 11 Oeste 0 976.6 -- 38
2020-08-26 14:00:00 29.5 5 Oeste 11 Oeste 0 977.2 -- 40
2020-08-26 13:00:00 27.8 4 Oeste 13 Oeste 0 977.8 -- 45
2020-08-26 12:00:00 25.7 8 Oeste 17 Oeste 0 978.3 -- 52
2020-08-26 11:00:00 23.9 10 Oeste 17 Oeste 0 978.4 -- 61
2020-08-26 10:00:00 21.4 10 Oeste 15 Oeste 0 978.3 -- 70
2020-08-26 09:00:00 19.1 11 Oeste 15 Oeste 0 978.3 -- 77
2020-08-26 08:00:00 17.5 6 Oeste 13 Oeste 0 978.1 -- 84
2020-08-26 07:00:00 17.5 6 Oeste 15 Sudoeste 0 977.4 -- 84
2020-08-26 06:00:00 17.6 9 Oeste 13 Oeste 0 977 -- 81
2020-08-26 05:00:00 18.1 7 Oeste 15 Oeste 0 977 -- 78
2020-08-26 04:00:00 18.7 8 Oeste 13 Oeste 0 977.3 -- 73
2020-08-26 03:00:00 19.4 8 Oeste 13 Sudoeste 0 977.3 -- 70
2020-08-26 02:00:00 20.1 9 Oeste 13 Oeste 0 977.4 -- 67
2020-08-26 01:00:00 21.1 8 Sudoeste 13 Oeste 0 977.2 -- 64
2020-08-26 00:00:00 21.4 7 Oeste 15 Oeste 0 976.9 -- 67